Decoded Metar for K1A5 (MACON/FRANKLIN in NC, USA) (IATA:1A5) | Meteo·Mobile Aviation Weather
aviador You're here:

K1A5 Decoded Metar

MACON/FRANKLIN in NC, USA
Report Time2019-10-19 22:15:00
UTC Time2019-10-19 22:14:53
Flight Rules ifr IFR
WindCalm
Visibility4023 m
Phenomena:Rain
Clouds:Scattered 005 Hf
Overcast 022 Hf
Expected CloudBase > 400 ft AGL from Temp-Dew spread
Ceiling2,200 ft
Temp12°C (ISA +1)
Dew Point11°C (94% RH)
QNH1014 hPa
Density Alt2,293 ft
Elevation2,021 ft
Report Wrong Elevation
Raw Report
K1A5 192215Z AUTO 00000KT 2 1/2SM RA SCT005 OVC022 12/11 A2995 RMK
AO2 P0003 T01170110=

Extra information for K1A5:More info

Metar Taf Metar & Taf Last 4 Metars F.Rules Stats Wind Profile Meteogram Temp Stats Airport Information Weather charts Add Link Nearby VenuesMetar ALERT Operation Metar Decoded Social comments

AIRNAV info for K1A5